sensor_id;sensor_type;location;lat;lon;timestamp;P1;durP1;ratioP1;P2;durP2;ratioP2
67798;SDS011;54596;43.216;27.904;2023-01-09T00:00:09;11.07;;;5.35;;
67798;SDS011;54596;43.216;27.904;2023-01-09T00:02:37;11.00;;;5.22;;
67798;SDS011;54596;43.216;27.904;2023-01-09T00:05:05;12.68;;;5.47;;
67798;SDS011;54596;43.216;27.904;2023-01-09T00:07:34;12.20;;;5.30;;
67798;SDS011;54596;43.216;27.904;2023-01-09T00:09:59;13.43;;;5.30;;
67798;SDS011;54596;43.216;27.904;2023-01-09T00:12:25;11.15;;;5.78;;
67798;SDS011;54596;43.216;27.904;2023-01-09T00:14:50;11.02;;;5.40;;
67798;SDS011;54596;43.216;27.904;2023-01-09T00:17:16;11.25;;;5.00;;
67798;SDS011;54596;43.216;27.904;2023-01-09T00:19:41;13.90;;;4.97;;
67798;SDS011;54596;43.216;27.904;2023-01-09T00:22:07;10.85;;;4.80;;
67798;SDS011;54596;43.216;27.904;2023-01-09T00:24:34;11.40;;;4.80;;
67798;SDS011;54596;43.216;27.904;2023-01-09T00:27:00;9.40;;;5.15;;
67798;SDS011;54596;43.216;27.904;2023-01-09T00:29:25;10.60;;;5.20;;
67798;SDS011;54596;43.216;27.904;2023-01-09T00:31:51;11.60;;;5.45;;
67798;SDS011;54596;43.216;27.904;2023-01-09T00:34:16;10.18;;;5.07;;
67798;SDS011;54596;43.216;27.904;2023-01-09T00:36:42;10.52;;;5.10;;
67798;SDS011;54596;43.216;27.904;2023-01-09T00:39:07;10.88;;;5.05;;
67798;SDS011;54596;43.216;27.904;2023-01-09T00:41:39;11.70;;;5.20;;
67798;SDS011;54596;43.216;27.904;2023-01-09T00:44:13;10.75;;;5.07;;
67798;SDS011;54596;43.216;27.904;2023-01-09T00:46:43;10.68;;;4.97;;
67798;SDS011;54596;43.216;27.904;2023-01-09T00:49:11;10.73;;;5.32;;
67798;SDS011;54596;43.216;27.904;2023-01-09T00:51:38;10.07;;;5.38;;
67798;SDS011;54596;43.216;27.904;2023-01-09T00:54:06;11.40;;;4.88;;
67798;SDS011;54596;43.216;27.904;2023-01-09T00:56:33;13.63;;;5.50;;
67798;SDS011;54596;43.216;27.904;2023-01-09T00:59:01;10.85;;;4.97;;
67798;SDS011;54596;43.216;27.904;2023-01-09T01:01:28;11.18;;;5.22;;
67798;SDS011;54596;43.216;27.904;2023-01-09T01:03:54;9.68;;;5.25;;
67798;SDS011;54596;43.216;27.904;2023-01-09T01:06:19;11.48;;;5.15;;
67798;SDS011;54596;43.216;27.904;2023-01-09T01:09:03;12.20;;;5.00;;
67798;SDS011;54596;43.216;27.904;2023-01-09T01:11:30;10.82;;;5.07;;
67798;SDS011;54596;43.216;27.904;2023-01-09T01:13:57;9.98;;;4.80;;
67798;SDS011;54596;43.216;27.904;2023-01-09T01:16:23;11.77;;;5.35;;
67798;SDS011;54596;43.216;27.904;2023-01-09T01:18:48;11.57;;;4.88;;
67798;SDS011;54596;43.216;27.904;2023-01-09T01:21:14;10.52;;;5.07;;
67798;SDS011;54596;43.216;27.904;2023-01-09T01:23:40;10.25;;;4.53;;
67798;SDS011;54596;43.216;27.904;2023-01-09T01:26:07;11.15;;;5.30;;
67798;SDS011;54596;43.216;27.904;2023-01-09T01:28:34;12.55;;;5.30;;
67798;SDS011;54596;43.216;27.904;2023-01-09T01:31:00;13.05;;;5.22;;
67798;SDS011;54596;43.216;27.904;2023-01-09T01:33:26;12.20;;;5.63;;
67798;SDS011;54596;43.216;27.904;2023-01-09T01:36:05;11.98;;;4.82;;
67798;SDS011;54596;43.216;27.904;2023-01-09T01:38:32;13.38;;;5.95;;
67798;SDS011;54596;43.216;27.904;2023-01-09T01:40:58;13.52;;;5.43;;
67798;SDS011;54596;43.216;27.904;2023-01-09T01:43:24;13.23;;;4.93;;
67798;SDS011;54596;43.216;27.904;2023-01-09T01:45:50;13.68;;;5.88;;
67798;SDS011;54596;43.216;27.904;2023-01-09T01:48:17;12.07;;;5.32;;
67798;SDS011;54596;43.216;27.904;2023-01-09T01:50:47;10.85;;;5.18;;
67798;SDS011;54596;43.216;27.904;2023-01-09T01:58:22;15.03;;;5.60;;
67798;SDS011;54596;43.216;27.904;2023-01-09T02:00:47;12.05;;;5.10;;
67798;SDS011;54596;43.216;27.904;2023-01-09T02:03:17;9.57;;;4.93;;
67798;SDS011;54596;43.216;27.904;2023-01-09T02:05:44;10.93;;;5.05;;
67798;SDS011;54596;43.216;27.904;2023-01-09T02:08:09;10.82;;;4.97;;
67798;SDS011;54596;43.216;27.904;2023-01-09T02:10:36;10.82;;;4.65;;
67798;SDS011;54596;43.216;27.904;2023-01-09T02:13:03;12.82;;;5.25;;
67798;SDS011;54596;43.216;27.904;2023-01-09T02:15:37;12.40;;;5.80;;
67798;SDS011;54596;43.216;27.904;2023-01-09T02:21:00;9.70;;;5.13;;
67798;SDS011;54596;43.216;27.904;2023-01-09T02:32:06;10.88;;;4.20;;
67798;SDS011;54596;43.216;27.904;2023-01-09T02:42:40;11.57;;;4.43;;
67798;SDS011;54596;43.216;27.904;2023-01-09T02:45:08;10.70;;;4.30;;
67798;SDS011;54596;43.216;27.904;2023-01-09T02:47:35;9.82;;;4.07;;
67798;SDS011;54596;43.216;27.904;2023-01-09T02:50:04;12.27;;;4.03;;
67798;SDS011;54596;43.216;27.904;2023-01-09T03:00:09;12.43;;;4.10;;
67798;SDS011;54596;43.216;27.904;2023-01-09T03:02:57;10.50;;;3.47;;
67798;SDS011;54596;43.216;27.904;2023-01-09T03:05:46;11.20;;;3.40;;
67798;SDS011;54596;43.216;27.904;2023-01-09T03:08:21;9.95;;;3.67;;
67798;SDS011;54596;43.216;27.904;2023-01-09T03:13:18;12.02;;;3.47;;
67798;SDS011;54596;43.216;27.904;2023-01-09T03:15:48;9.75;;;3.20;;
67798;SDS011;54596;43.216;27.904;2023-01-09T03:18:18;11.38;;;3.55;;
67798;SDS011;54596;43.216;27.904;2023-01-09T03:20:46;11.15;;;3.30;;
67798;SDS011;54596;43.216;27.904;2023-01-09T03:23:12;8.57;;;3.13;;
67798;SDS011;54596;43.216;27.904;2023-01-09T03:25:38;13.05;;;3.47;;
67798;SDS011;54596;43.216;27.904;2023-01-09T03:28:05;9.90;;;3.30;;
67798;SDS011;54596;43.216;27.904;2023-01-09T03:30:33;12.43;;;3.80;;
67798;SDS011;54596;43.216;27.904;2023-01-09T03:33:00;14.00;;;3.60;;
67798;SDS011;54596;43.216;27.904;2023-01-09T03:35:25;11.18;;;3.50;;
67798;SDS011;54596;43.216;27.904;2023-01-09T03:37:52;10.80;;;3.20;;
67798;SDS011;54596;43.216;27.904;2023-01-09T03:40:18;9.70;;;3.00;;
67798;SDS011;54596;43.216;27.904;2023-01-09T03:42:44;10.85;;;3.20;;
67798;SDS011;54596;43.216;27.904;2023-01-09T03:45:10;10.43;;;3.40;;
67798;SDS011;54596;43.216;27.904;2023-01-09T03:47:35;17.45;;;3.50;;
67798;SDS011;54596;43.216;27.904;2023-01-09T03:50:01;10.95;;;3.35;;
67798;SDS011;54596;43.216;27.904;2023-01-09T03:52:27;11.50;;;4.18;;
67798;SDS011;54596;43.216;27.904;2023-01-09T03:54:52;10.32;;;4.10;;
67798;SDS011;54596;43.216;27.904;2023-01-09T03:57:18;12.60;;;3.45;;
67798;SDS011;54596;43.216;27.904;2023-01-09T03:59:43;11.55;;;3.22;;
67798;SDS011;54596;43.216;27.904;2023-01-09T04:02:09;9.77;;;3.30;;
67798;SDS011;54596;43.216;27.904;2023-01-09T04:04:34;10.73;;;3.22;;
67798;SDS011;54596;43.216;27.904;2023-01-09T04:06:59;12.00;;;3.30;;
67798;SDS011;54596;43.216;27.904;2023-01-09T04:09:25;9.30;;;3.20;;
67798;SDS011;54596;43.216;27.904;2023-01-09T04:11:50;12.02;;;3.40;;
67798;SDS011;54596;43.216;27.904;2023-01-09T04:14:16;8.90;;;2.90;;
67798;SDS011;54596;43.216;27.904;2023-01-09T04:16:41;12.65;;;4.25;;
67798;SDS011;54596;43.216;27.904;2023-01-09T04:19:07;15.70;;;5.88;;
67798;SDS011;54596;43.216;27.904;2023-01-09T04:21:32;12.25;;;4.30;;
67798;SDS011;54596;43.216;27.904;2023-01-09T04:23:58;18.92;;;8.68;;
67798;SDS011;54596;43.216;27.904;2023-01-09T04:26:24;12.05;;;3.55;;
67798;SDS011;54596;43.216;27.904;2023-01-09T04:28:49;11.90;;;4.00;;
67798;SDS011;54596;43.216;27.904;2023-01-09T04:31:15;13.55;;;5.78;;
67798;SDS011;54596;43.216;27.904;2023-01-09T04:33:40;11.68;;;3.13;;
67798;SDS011;54596;43.216;27.904;2023-01-09T04:36:06;10.63;;;3.67;;
67798;SDS011;54596;43.216;27.904;2023-01-09T04:38:32;11.38;;;3.20;;
67798;SDS011;54596;43.216;27.904;2023-01-09T04:40:57;11.93;;;3.47;;
67798;SDS011;54596;43.216;27.904;2023-01-09T04:43:23;13.95;;;3.28;;
67798;SDS011;54596;43.216;27.904;2023-01-09T04:45:48;8.18;;;2.95;;
67798;SDS011;54596;43.216;27.904;2023-01-09T04:48:14;11.57;;;3.40;;
67798;SDS011;54596;43.216;27.904;2023-01-09T04:50:39;12.57;;;3.53;;
67798;SDS011;54596;43.216;27.904;2023-01-09T04:53:05;10.52;;;3.47;;
67798;SDS011;54596;43.216;27.904;2023-01-09T04:55:31;10.10;;;3.20;;
67798;SDS011;54596;43.216;27.904;2023-01-09T04:57:57;10.88;;;2.95;;
67798;SDS011;54596;43.216;27.904;2023-01-09T05:00:23;13.23;;;3.58;;
67798;SDS011;54596;43.216;27.904;2023-01-09T05:02:48;13.95;;;3.20;;
67798;SDS011;54596;43.216;27.904;2023-01-09T05:05:14;13.05;;;3.58;;
67798;SDS011;54596;43.216;27.904;2023-01-09T05:07:39;15.15;;;3.42;;
67798;SDS011;54596;43.216;27.904;2023-01-09T05:10:05;14.60;;;3.08;;
67798;SDS011;54596;43.216;27.904;2023-01-09T05:12:32;11.40;;;2.92;;
67798;SDS011;54596;43.216;27.904;2023-01-09T05:15:00;12.15;;;3.38;;
67798;SDS011;54596;43.216;27.904;2023-01-09T05:17:26;14.15;;;3.40;;
67798;SDS011;54596;43.216;27.904;2023-01-09T05:19:51;12.95;;;3.58;;
67798;SDS011;54596;43.216;27.904;2023-01-09T05:22:17;12.57;;;3.40;;
67798;SDS011;54596;43.216;27.904;2023-01-09T05:24:42;13.65;;;3.80;;
67798;SDS011;54596;43.216;27.904;2023-01-09T05:27:08;12.63;;;3.40;;
67798;SDS011;54596;43.216;27.904;2023-01-09T05:29:33;12.35;;;3.67;;
67798;SDS011;54596;43.216;27.904;2023-01-09T05:31:59;18.02;;;3.97;;
67798;SDS011;54596;43.216;27.904;2023-01-09T05:34:24;13.70;;;3.80;;
67798;SDS011;54596;43.216;27.904;2023-01-09T05:36:50;13.10;;;3.85;;
67798;SDS011;54596;43.216;27.904;2023-01-09T05:39:15;12.02;;;3.42;;
67798;SDS011;54596;43.216;27.904;2023-01-09T05:41:41;12.88;;;4.20;;
67798;SDS011;54596;43.216;27.904;2023-01-09T05:44:06;14.80;;;4.03;;
67798;SDS011;54596;43.216;27.904;2023-01-09T05:46:32;16.40;;;3.95;;
67798;SDS011;54596;43.216;27.904;2023-01-09T05:48:58;13.82;;;4.18;;
67798;SDS011;54596;43.216;27.904;2023-01-09T05:51:23;15.43;;;4.35;;
67798;SDS011;54596;43.216;27.904;2023-01-09T05:53:48;14.65;;;3.35;;
67798;SDS011;54596;43.216;27.904;2023-01-09T05:56:14;14.68;;;4.05;;
67798;SDS011;54596;43.216;27.904;2023-01-09T05:58:40;16.55;;;3.90;;
67798;SDS011;54596;43.216;27.904;2023-01-09T06:01:06;15.75;;;5.53;;
67798;SDS011;54596;43.216;27.904;2023-01-09T06:03:31;16.83;;;5.40;;
67798;SDS011;54596;43.216;27.904;2023-01-09T06:05:57;16.90;;;4.63;;
67798;SDS011;54596;43.216;27.904;2023-01-09T06:08:23;13.57;;;4.50;;
67798;SDS011;54596;43.216;27.904;2023-01-09T06:10:49;16.92;;;4.32;;
67798;SDS011;54596;43.216;27.904;2023-01-09T06:13:14;16.23;;;4.60;;
67798;SDS011;54596;43.216;27.904;2023-01-09T06:15:40;14.70;;;3.95;;
67798;SDS011;54596;43.216;27.904;2023-01-09T06:18:06;14.65;;;4.75;;
67798;SDS011;54596;43.216;27.904;2023-01-09T06:20:31;12.27;;;3.90;;
67798;SDS011;54596;43.216;27.904;2023-01-09T06:22:57;17.25;;;4.53;;
67798;SDS011;54596;43.216;27.904;2023-01-09T06:25:22;15.43;;;4.18;;
67798;SDS011;54596;43.216;27.904;2023-01-09T06:27:48;19.05;;;5.25;;
67798;SDS011;54596;43.216;27.904;2023-01-09T06:30:16;16.55;;;4.68;;
67798;SDS011;54596;43.216;27.904;2023-01-09T06:32:42;17.95;;;4.53;;
67798;SDS011;54596;43.216;27.904;2023-01-09T06:35:07;18.05;;;4.28;;
67798;SDS011;54596;43.216;27.904;2023-01-09T06:37:33;14.63;;;4.22;;
67798;SDS011;54596;43.216;27.904;2023-01-09T06:39:59;17.83;;;4.47;;
67798;SDS011;54596;43.216;27.904;2023-01-09T06:42:24;13.65;;;4.30;;
67798;SDS011;54596;43.216;27.904;2023-01-09T06:44:49;19.25;;;4.25;;
67798;SDS011;54596;43.216;27.904;2023-01-09T06:47:15;13.70;;;4.25;;
67798;SDS011;54596;43.216;27.904;2023-01-09T06:49:40;17.85;;;4.80;;
67798;SDS011;54596;43.216;27.904;2023-01-09T06:52:06;13.20;;;4.00;;
67798;SDS011;54596;43.216;27.904;2023-01-09T06:54:32;12.65;;;3.60;;
67798;SDS011;54596;43.216;27.904;2023-01-09T06:56:58;12.40;;;3.72;;
67798;SDS011;54596;43.216;27.904;2023-01-09T06:59:24;16.48;;;3.58;;
67798;SDS011;54596;43.216;27.904;2023-01-09T07:01:50;15.70;;;3.95;;
67798;SDS011;54596;43.216;27.904;2023-01-09T07:04:16;13.18;;;4.10;;
67798;SDS011;54596;43.216;27.904;2023-01-09T07:06:41;14.65;;;3.75;;
67798;SDS011;54596;43.216;27.904;2023-01-09T07:09:07;14.07;;;4.25;;
67798;SDS011;54596;43.216;27.904;2023-01-09T07:11:37;12.70;;;3.20;;
67798;SDS011;54596;43.216;27.904;2023-01-09T07:14:03;13.73;;;3.10;;
67798;SDS011;54596;43.216;27.904;2023-01-09T07:16:29;12.15;;;3.63;;
67798;SDS011;54596;43.216;27.904;2023-01-09T07:18:54;15.70;;;3.55;;
67798;SDS011;54596;43.216;27.904;2023-01-09T07:21:20;14.68;;;3.88;;
67798;SDS011;54596;43.216;27.904;2023-01-09T07:23:45;13.45;;;3.78;;
67798;SDS011;54596;43.216;27.904;2023-01-09T07:26:11;17.63;;;3.97;;
67798;SDS011;54596;43.216;27.904;2023-01-09T07:28:36;13.00;;;3.58;;
67798;SDS011;54596;43.216;27.904;2023-01-09T07:31:02;15.52;;;4.20;;
67798;SDS011;54596;43.216;27.904;2023-01-09T07:33:28;12.32;;;3.92;;
67798;SDS011;54596;43.216;27.904;2023-01-09T07:35:54;10.43;;;3.90;;
67798;SDS011;54596;43.216;27.904;2023-01-09T07:38:20;14.77;;;3.90;;
67798;SDS011;54596;43.216;27.904;2023-01-09T07:40:45;15.05;;;3.83;;
67798;SDS011;54596;43.216;27.904;2023-01-09T07:43:11;13.50;;;3.80;;
67798;SDS011;54596;43.216;27.904;2023-01-09T07:45:36;13.07;;;3.70;;
67798;SDS011;54596;43.216;27.904;2023-01-09T07:48:02;20.35;;;4.30;;
67798;SDS011;54596;43.216;27.904;2023-01-09T07:50:27;16.50;;;4.20;;
67798;SDS011;54596;43.216;27.904;2023-01-09T07:52:53;11.90;;;4.13;;
67798;SDS011;54596;43.216;27.904;2023-01-09T07:55:18;13.95;;;3.47;;
67798;SDS011;54596;43.216;27.904;2023-01-09T07:57:47;13.25;;;3.75;;
67798;SDS011;54596;43.216;27.904;2023-01-09T08:02:42;13.45;;;3.90;;
67798;SDS011;54596;43.216;27.904;2023-01-09T08:05:08;16.63;;;4.10;;
67798;SDS011;54596;43.216;27.904;2023-01-09T08:07:37;14.18;;;4.38;;
67798;SDS011;54596;43.216;27.904;2023-01-09T08:10:03;17.17;;;4.95;;
67798;SDS011;54596;43.216;27.904;2023-01-09T08:12:28;21.38;;;10.57;;
67798;SDS011;54596;43.216;27.904;2023-01-09T08:14:54;19.33;;;8.00;;
67798;SDS011;54596;43.216;27.904;2023-01-09T08:17:19;17.70;;;6.15;;
67798;SDS011;54596;43.216;27.904;2023-01-09T08:19:45;13.00;;;4.13;;
67798;SDS011;54596;43.216;27.904;2023-01-09T08:22:10;19.05;;;6.75;;
67798;SDS011;54596;43.216;27.904;2023-01-09T08:24:36;15.70;;;5.10;;
67798;SDS011;54596;43.216;27.904;2023-01-09T08:27:01;15.45;;;5.10;;
67798;SDS011;54596;43.216;27.904;2023-01-09T08:29:27;13.15;;;4.28;;
67798;SDS011;54596;43.216;27.904;2023-01-09T08:31:54;18.05;;;4.88;;
67798;SDS011;54596;43.216;27.904;2023-01-09T08:34:20;15.30;;;4.45;;
67798;SDS011;54596;43.216;27.904;2023-01-09T08:36:46;16.88;;;4.57;;
67798;SDS011;54596;43.216;27.904;2023-01-09T08:39:12;14.20;;;4.30;;
67798;SDS011;54596;43.216;27.904;2023-01-09T08:41:37;18.40;;;4.28;;
67798;SDS011;54596;43.216;27.904;2023-01-09T08:44:21;17.52;;;4.70;;
67798;SDS011;54596;43.216;27.904;2023-01-09T08:47:05;13.10;;;4.60;;
67798;SDS011;54596;43.216;27.904;2023-01-09T08:49:37;12.85;;;3.75;;
67798;SDS011;54596;43.216;27.904;2023-01-09T08:52:03;15.60;;;4.10;;
67798;SDS011;54596;43.216;27.904;2023-01-09T08:54:30;14.00;;;4.10;;
67798;SDS011;54596;43.216;27.904;2023-01-09T08:56:55;10.90;;;3.60;;
67798;SDS011;54596;43.216;27.904;2023-01-09T08:59:21;13.15;;;3.33;;
67798;SDS011;54596;43.216;27.904;2023-01-09T09:01:46;12.60;;;3.90;;
67798;SDS011;54596;43.216;27.904;2023-01-09T09:04:12;13.02;;;3.75;;
67798;SDS011;54596;43.216;27.904;2023-01-09T09:06:37;21.48;;;4.60;;
67798;SDS011;54596;43.216;27.904;2023-01-09T09:09:03;14.40;;;5.07;;
67798;SDS011;54596;43.216;27.904;2023-01-09T09:11:30;15.27;;;4.13;;
67798;SDS011;54596;43.216;27.904;2023-01-09T09:13:57;13.75;;;3.95;;
67798;SDS011;54596;43.216;27.904;2023-01-09T09:16:25;14.02;;;4.07;;
67798;SDS011;54596;43.216;27.904;2023-01-09T09:18:51;13.18;;;4.18;;
67798;SDS011;54596;43.216;27.904;2023-01-09T09:21:17;12.75;;;4.15;;
67798;SDS011;54596;43.216;27.904;2023-01-09T09:23:44;14.60;;;4.45;;
67798;SDS011;54596;43.216;27.904;2023-01-09T09:26:10;14.05;;;4.57;;
67798;SDS011;54596;43.216;27.904;2023-01-09T09:28:35;18.10;;;4.90;;
67798;SDS011;54596;43.216;27.904;2023-01-09T09:31:03;15.00;;;4.88;;
67798;SDS011;54596;43.216;27.904;2023-01-09T09:33:29;17.75;;;4.90;;
67798;SDS011;54596;43.216;27.904;2023-01-09T09:35:57;15.90;;;5.35;;
67798;SDS011;54596;43.216;27.904;2023-01-09T09:38:23;22.13;;;6.85;;
67798;SDS011;54596;43.216;27.904;2023-01-09T09:48:51;14.82;;;4.90;;
67798;SDS011;54596;43.216;27.904;2023-01-09T09:54:11;16.27;;;5.18;;
67798;SDS011;54596;43.216;27.904;2023-01-09T09:56:58;14.18;;;5.15;;
67798;SDS011;54596;43.216;27.904;2023-01-09T09:59:33;18.23;;;6.03;;
67798;SDS011;54596;43.216;27.904;2023-01-09T10:04:33;16.33;;;5.68;;
67798;SDS011;54596;43.216;27.904;2023-01-09T10:07:05;16.40;;;5.30;;
67798;SDS011;54596;43.216;27.904;2023-01-09T10:14:52;15.02;;;5.47;;
67798;SDS011;54596;43.216;27.904;2023-01-09T10:17:45;15.18;;;5.13;;
67798;SDS011;54596;43.216;27.904;2023-01-09T10:20:09;13.57;;;5.22;;
67798;SDS011;54596;43.216;27.904;2023-01-09T10:31:00;15.68;;;5.57;;
67798;SDS011;54596;43.216;27.904;2023-01-09T10:39:09;16.90;;;6.57;;
67798;SDS011;54596;43.216;27.904;2023-01-09T10:41:48;25.63;;;12.05;;
67798;SDS011;54596;43.216;27.904;2023-01-09T10:44:31;21.80;;;10.27;;
67798;SDS011;54596;43.216;27.904;2023-01-09T10:50:20;19.08;;;6.75;;
67798;SDS011;54596;43.216;27.904;2023-01-09T10:52:48;16.23;;;6.25;;
67798;SDS011;54596;43.216;27.904;2023-01-09T10:55:34;16.10;;;7.30;;
67798;SDS011;54596;43.216;27.904;2023-01-09T10:58:09;16.98;;;5.95;;
67798;SDS011;54596;43.216;27.904;2023-01-09T11:00:37;19.77;;;5.90;;
67798;SDS011;54596;43.216;27.904;2023-01-09T11:03:03;20.48;;;5.90;;
67798;SDS011;54596;43.216;27.904;2023-01-09T11:05:29;21.33;;;8.88;;
67798;SDS011;54596;43.216;27.904;2023-01-09T11:10:49;19.77;;;8.10;;
67798;SDS011;54596;43.216;27.904;2023-01-09T11:18:25;19.92;;;6.50;;
67798;SDS011;54596;43.216;27.904;2023-01-09T11:20:51;19.25;;;5.95;;
67798;SDS011;54596;43.216;27.904;2023-01-09T11:23:30;19.02;;;6.25;;
67798;SDS011;54596;43.216;27.904;2023-01-09T11:25:58;17.25;;;6.20;;
67798;SDS011;54596;43.216;27.904;2023-01-09T11:28:26;17.40;;;6.93;;
67798;SDS011;54596;43.216;27.904;2023-01-09T11:30:56;16.13;;;6.18;;
67798;SDS011;54596;43.216;27.904;2023-01-09T11:33:36;18.10;;;8.07;;
67798;SDS011;54596;43.216;27.904;2023-01-09T11:36:12;22.33;;;7.63;;
67798;SDS011;54596;43.216;27.904;2023-01-09T11:41:22;22.60;;;7.93;;
67798;SDS011;54596;43.216;27.904;2023-01-09T11:43:50;20.20;;;7.15;;
67798;SDS011;54596;43.216;27.904;2023-01-09T11:51:39;16.48;;;6.32;;
67798;SDS011;54596;43.216;27.904;2023-01-09T11:56:50;15.35;;;6.28;;
67798;SDS011;54596;43.216;27.904;2023-01-09T11:59:17;20.95;;;8.32;;
67798;SDS011;54596;43.216;27.904;2023-01-09T12:04:37;19.08;;;7.38;;
67798;SDS011;54596;43.216;27.904;2023-01-09T12:10:10;15.43;;;7.28;;
67798;SDS011;54596;43.216;27.904;2023-01-09T12:13:03;21.77;;;8.35;;
67798;SDS011;54596;43.216;27.904;2023-01-09T12:24:53;17.83;;;8.07;;
67798;SDS011;54596;43.216;27.904;2023-01-09T12:27:53;17.42;;;7.95;;
67798;SDS011;54596;43.216;27.904;2023-01-09T12:35:35;20.20;;;8.27;;
67798;SDS011;54596;43.216;27.904;2023-01-09T12:46:30;20.70;;;10.07;;
67798;SDS011;54596;43.216;27.904;2023-01-09T12:49:20;21.65;;;10.30;;
67798;SDS011;54596;43.216;27.904;2023-01-09T12:52:09;23.40;;;9.70;;
67798;SDS011;54596;43.216;27.904;2023-01-09T12:54:55;21.45;;;10.55;;
67798;SDS011;54596;43.216;27.904;2023-01-09T12:57:34;25.73;;;13.70;;
67798;SDS011;54596;43.216;27.904;2023-01-09T13:03:33;23.98;;;11.85;;
67798;SDS011;54596;43.216;27.904;2023-01-09T13:06:03;26.98;;;11.85;;
67798;SDS011;54596;43.216;27.904;2023-01-09T13:08:37;26.13;;;16.60;;
67798;SDS011;54596;43.216;27.904;2023-01-09T13:11:14;26.10;;;14.02;;
67798;SDS011;54596;43.216;27.904;2023-01-09T13:13:50;25.83;;;16.52;;
67798;SDS011;54596;43.216;27.904;2023-01-09T13:16:29;21.80;;;12.02;;
67798;SDS011;54596;43.216;27.904;2023-01-09T13:19:02;24.42;;;14.13;;
67798;SDS011;54596;43.216;27.904;2023-01-09T13:21:35;24.08;;;12.20;;
67798;SDS011;54596;43.216;27.904;2023-01-09T13:24:19;23.67;;;12.73;;
67798;SDS011;54596;43.216;27.904;2023-01-09T13:26:55;25.27;;;13.55;;
67798;SDS011;54596;43.216;27.904;2023-01-09T13:29:27;26.05;;;15.63;;
67798;SDS011;54596;43.216;27.904;2023-01-09T13:34:50;25.92;;;12.50;;
67798;SDS011;54596;43.216;27.904;2023-01-09T13:37:27;25.13;;;13.77;;
67798;SDS011;54596;43.216;27.904;2023-01-09T13:39:59;20.98;;;10.73;;
67798;SDS011;54596;43.216;27.904;2023-01-09T13:42:25;23.98;;;13.27;;
67798;SDS011;54596;43.216;27.904;2023-01-09T13:47:41;21.38;;;11.70;;
67798;SDS011;54596;43.216;27.904;2023-01-09T13:52:43;23.58;;;11.55;;
67798;SDS011;54596;43.216;27.904;2023-01-09T13:57:36;23.20;;;10.63;;
67798;SDS011;54596;43.216;27.904;2023-01-09T14:10:04;24.30;;;13.20;;
67798;SDS011;54596;43.216;27.904;2023-01-09T14:12:32;18.25;;;9.52;;
67798;SDS011;54596;43.216;27.904;2023-01-09T14:15:04;23.90;;;10.40;;
67798;SDS011;54596;43.216;27.904;2023-01-09T14:17:35;18.95;;;10.57;;
67798;SDS011;54596;43.216;27.904;2023-01-09T14:20:16;23.00;;;9.18;;
67798;SDS011;54596;43.216;27.904;2023-01-09T14:22:56;18.13;;;9.07;;
67798;SDS011;54596;43.216;27.904;2023-01-09T14:25:28;19.75;;;9.93;;
67798;SDS011;54596;43.216;27.904;2023-01-09T14:30:29;19.90;;;8.85;;
67798;SDS011;54596;43.216;27.904;2023-01-09T14:33:02;17.35;;;8.73;;
67798;SDS011;54596;43.216;27.904;2023-01-09T14:38:53;15.70;;;8.23;;
67798;SDS011;54596;43.216;27.904;2023-01-09T14:41:37;18.83;;;7.97;;
67798;SDS011;54596;43.216;27.904;2023-01-09T14:44:47;16.83;;;7.97;;
67798;SDS011;54596;43.216;27.904;2023-01-09T14:47:17;18.30;;;7.68;;
67798;SDS011;54596;43.216;27.904;2023-01-09T14:49:54;19.27;;;8.40;;
67798;SDS011;54596;43.216;27.904;2023-01-09T14:52:29;21.33;;;7.93;;
67798;SDS011;54596;43.216;27.904;2023-01-09T14:55:00;20.50;;;8.25;;
67798;SDS011;54596;43.216;27.904;2023-01-09T14:57:28;16.65;;;7.70;;
67798;SDS011;54596;43.216;27.904;2023-01-09T15:00:03;18.45;;;8.43;;
67798;SDS011;54596;43.216;27.904;2023-01-09T15:02:43;18.52;;;7.97;;
67798;SDS011;54596;43.216;27.904;2023-01-09T15:05:19;19.27;;;7.82;;
67798;SDS011;54596;43.216;27.904;2023-01-09T15:07:51;17.27;;;8.23;;
67798;SDS011;54596;43.216;27.904;2023-01-09T15:10:30;20.27;;;8.43;;
67798;SDS011;54596;43.216;27.904;2023-01-09T15:12:59;18.70;;;8.10;;
67798;SDS011;54596;43.216;27.904;2023-01-09T15:15:27;20.55;;;8.70;;
67798;SDS011;54596;43.216;27.904;2023-01-09T15:17:54;18.50;;;8.45;;
67798;SDS011;54596;43.216;27.904;2023-01-09T15:20:32;16.50;;;7.80;;
67798;SDS011;54596;43.216;27.904;2023-01-09T15:22:58;20.27;;;10.57;;
67798;SDS011;54596;43.216;27.904;2023-01-09T15:28:00;17.98;;;8.60;;
67798;SDS011;54596;43.216;27.904;2023-01-09T15:30:44;18.98;;;8.57;;
67798;SDS011;54596;43.216;27.904;2023-01-09T15:33:14;21.13;;;8.60;;
67798;SDS011;54596;43.216;27.904;2023-01-09T15:38:10;19.42;;;9.40;;
67798;SDS011;54596;43.216;27.904;2023-01-09T15:40:41;22.00;;;11.57;;
67798;SDS011;54596;43.216;27.904;2023-01-09T15:43:07;20.02;;;10.40;;
67798;SDS011;54596;43.216;27.904;2023-01-09T15:45:39;17.50;;;8.70;;
67798;SDS011;54596;43.216;27.904;2023-01-09T15:48:20;22.45;;;9.07;;
67798;SDS011;54596;43.216;27.904;2023-01-09T15:51:10;20.45;;;9.15;;
67798;SDS011;54596;43.216;27.904;2023-01-09T15:53:49;20.77;;;9.57;;
67798;SDS011;54596;43.216;27.904;2023-01-09T15:56:25;18.58;;;9.95;;
67798;SDS011;54596;43.216;27.904;2023-01-09T15:58:55;21.58;;;9.00;;
67798;SDS011;54596;43.216;27.904;2023-01-09T16:01:31;21.50;;;9.80;;
67798;SDS011;54596;43.216;27.904;2023-01-09T16:04:06;22.17;;;9.43;;
67798;SDS011;54596;43.216;27.904;2023-01-09T16:06:40;22.85;;;9.75;;
67798;SDS011;54596;43.216;27.904;2023-01-09T16:09:17;28.13;;;10.05;;
67798;SDS011;54596;43.216;27.904;2023-01-09T16:11:50;22.85;;;10.00;;
67798;SDS011;54596;43.216;27.904;2023-01-09T16:14:31;22.92;;;10.98;;
67798;SDS011;54596;43.216;27.904;2023-01-09T16:17:06;19.45;;;9.60;;
67798;SDS011;54596;43.216;27.904;2023-01-09T16:19:47;21.80;;;10.50;;
67798;SDS011;54596;43.216;27.904;2023-01-09T16:22:29;22.05;;;10.07;;
67798;SDS011;54596;43.216;27.904;2023-01-09T16:30:58;24.58;;;10.60;;
67798;SDS011;54596;43.216;27.904;2023-01-09T16:33:27;24.23;;;11.20;;
67798;SDS011;54596;43.216;27.904;2023-01-09T16:35:55;21.50;;;10.93;;
67798;SDS011;54596;43.216;27.904;2023-01-09T16:38:23;23.15;;;11.60;;
67798;SDS011;54596;43.216;27.904;2023-01-09T16:43:50;26.38;;;12.63;;
67798;SDS011;54596;43.216;27.904;2023-01-09T16:46:16;26.63;;;12.25;;
67798;SDS011;54596;43.216;27.904;2023-01-09T16:48:44;22.90;;;11.23;;
67798;SDS011;54596;43.216;27.904;2023-01-09T16:51:17;21.48;;;11.77;;
67798;SDS011;54596;43.216;27.904;2023-01-09T16:53:46;21.70;;;12.35;;
67798;SDS011;54596;43.216;27.904;2023-01-09T16:58:50;34.88;;;19.85;;
67798;SDS011;54596;43.216;27.904;2023-01-09T17:01:19;30.85;;;18.15;;
67798;SDS011;54596;43.216;27.904;2023-01-09T17:03:46;26.35;;;13.68;;
67798;SDS011;54596;43.216;27.904;2023-01-09T17:08:54;39.45;;;19.88;;
67798;SDS011;54596;43.216;27.904;2023-01-09T17:11:21;25.50;;;14.38;;
67798;SDS011;54596;43.216;27.904;2023-01-09T17:13:52;27.70;;;13.73;;
67798;SDS011;54596;43.216;27.904;2023-01-09T17:16:17;25.55;;;14.50;;
67798;SDS011;54596;43.216;27.904;2023-01-09T17:18:43;29.45;;;13.50;;
67798;SDS011;54596;43.216;27.904;2023-01-09T17:21:20;25.25;;;14.80;;